sensor_id;sensor_type;location;lat;lon;timestamp;pressure;altitude;pressure_sealevel;temperature;humidity
73817;BME280;62146;53.232;-1.304;2023-05-29T00:02:23;101767.81;;;10.80;100.00
73817;BME280;62146;53.232;-1.304;2023-05-29T00:04:50;101768.25;;;10.70;100.00
73817;BME280;62146;53.232;-1.304;2023-05-29T00:07:17;101767.63;;;10.69;100.00
73817;BME280;62146;53.232;-1.304;2023-05-29T00:09:44;101767.22;;;10.65;100.00
73817;BME280;62146;53.232;-1.304;2023-05-29T00:12:10;101765.19;;;10.61;100.00
73817;BME280;62146;53.232;-1.304;2023-05-29T00:14:38;101763.38;;;10.55;100.00
73817;BME280;62146;53.232;-1.304;2023-05-29T00:17:04;101760.09;;;10.53;100.00
73817;BME280;62146;53.232;-1.304;2023-05-29T00:19:32;101754.38;;;10.49;100.00
73817;BME280;62146;53.232;-1.304;2023-05-29T00:21:59;101759.28;;;10.46;100.00
73817;BME280;62146;53.232;-1.304;2023-05-29T00:24:25;101767.47;;;10.44;100.00
73817;BME280;62146;53.232;-1.304;2023-05-29T00:26:52;101765.22;;;10.42;100.00
73817;BME280;62146;53.232;-1.304;2023-05-29T00:29:19;101759.50;;;10.38;100.00
73817;BME280;62146;53.232;-1.304;2023-05-29T00:31:47;101763.78;;;10.33;100.00
73817;BME280;62146;53.232;-1.304;2023-05-29T00:34:14;101765.63;;;10.32;100.00
73817;BME280;62146;53.232;-1.304;2023-05-29T00:36:40;101769.50;;;10.30;100.00
73817;BME280;62146;53.232;-1.304;2023-05-29T00:39:07;101770.94;;;10.26;100.00
73817;BME280;62146;53.232;-1.304;2023-05-29T00:41:34;101768.50;;;10.24;100.00
73817;BME280;62146;53.232;-1.304;2023-05-29T00:44:00;101775.19;;;10.20;100.00
73817;BME280;62146;53.232;-1.304;2023-05-29T00:46:27;101780.91;;;10.17;100.00
73817;BME280;62146;53.232;-1.304;2023-05-29T00:48:54;101764.38;;;10.16;100.00
73817;BME280;62146;53.232;-1.304;2023-05-29T00:51:21;101758.50;;;10.14;100.00
73817;BME280;62146;53.232;-1.304;2023-05-29T00:53:48;101766.22;;;10.09;100.00
73817;BME280;62146;53.232;-1.304;2023-05-29T00:56:16;101766.66;;;10.06;100.00
73817;BME280;62146;53.232;-1.304;2023-05-29T00:58:44;101758.06;;;10.04;100.00
73817;BME280;62146;53.232;-1.304;2023-05-29T01:01:11;101756.44;;;10.03;100.00
73817;BME280;62146;53.232;-1.304;2023-05-29T01:03:38;101767.66;;;9.98;100.00
73817;BME280;62146;53.232;-1.304;2023-05-29T01:06:06;101767.25;;;9.95;100.00
73817;BME280;62146;53.232;-1.304;2023-05-29T01:08:34;101765.19;;;9.90;100.00
73817;BME280;62146;53.232;-1.304;2023-05-29T01:11:11;101766.41;;;9.88;100.00
73817;BME280;62146;53.232;-1.304;2023-05-29T01:13:41;101769.63;;;9.84;100.00
73817;BME280;62146;53.232;-1.304;2023-05-29T01:16:30;101779.81;;;9.80;100.00
73817;BME280;62146;53.232;-1.304;2023-05-29T01:19:10;101776.31;;;9.73;100.00
73817;BME280;62146;53.232;-1.304;2023-05-29T01:27:01;101782.63;;;9.60;100.00
73817;BME280;62146;53.232;-1.304;2023-05-29T01:29:32;101786.66;;;9.56;100.00
73817;BME280;62146;53.232;-1.304;2023-05-29T01:32:01;101789.72;;;9.53;100.00
73817;BME280;62146;53.232;-1.304;2023-05-29T01:34:30;101787.88;;;9.47;100.00
73817;BME280;62146;53.232;-1.304;2023-05-29T01:36:57;101792.34;;;9.46;100.00
73817;BME280;62146;53.232;-1.304;2023-05-29T01:39:24;101788.69;;;9.41;100.00
73817;BME280;62146;53.232;-1.304;2023-05-29T01:41:52;101786.19;;;9.39;100.00
73817;BME280;62146;53.232;-1.304;2023-05-29T01:44:21;101791.06;;;9.36;100.00
73817;BME280;62146;53.232;-1.304;2023-05-29T01:46:49;101789.22;;;9.30;100.00
73817;BME280;62146;53.232;-1.304;2023-05-29T01:49:17;101786.16;;;9.27;100.00
73817;BME280;62146;53.232;-1.304;2023-05-29T01:51:44;101787.38;;;9.24;100.00
73817;BME280;62146;53.232;-1.304;2023-05-29T01:54:11;101786.34;;;9.19;100.00
73817;BME280;62146;53.232;-1.304;2023-05-29T01:56:38;101786.94;;;9.14;100.00
73817;BME280;62146;53.232;-1.304;2023-05-29T01:59:05;101784.84;;;9.10;100.00
73817;BME280;62146;53.232;-1.304;2023-05-29T02:01:32;101776.50;;;9.07;100.00
73817;BME280;62146;53.232;-1.304;2023-05-29T02:03:59;101776.91;;;9.04;100.00
73817;BME280;62146;53.232;-1.304;2023-05-29T02:06:26;101786.22;;;9.00;100.00
73817;BME280;62146;53.232;-1.304;2023-05-29T02:08:52;101775.41;;;8.95;100.00
73817;BME280;62146;53.232;-1.304;2023-05-29T02:11:19;101779.88;;;8.88;100.00
73817;BME280;62146;53.232;-1.304;2023-05-29T02:13:46;101777.22;;;8.88;100.00
73817;BME280;62146;53.232;-1.304;2023-05-29T02:16:13;101782.88;;;8.85;100.00
73817;BME280;62146;53.232;-1.304;2023-05-29T02:18:40;101787.16;;;8.80;100.00
73817;BME280;62146;53.232;-1.304;2023-05-29T02:21:07;101783.03;;;8.77;100.00
73817;BME280;62146;53.232;-1.304;2023-05-29T02:23:34;101774.69;;;8.74;100.00
73817;BME280;62146;53.232;-1.304;2023-05-29T02:26:01;101772.00;;;8.67;100.00
73817;BME280;62146;53.232;-1.304;2023-05-29T02:28:27;101773.00;;;8.66;100.00
73817;BME280;62146;53.232;-1.304;2023-05-29T02:30:54;101774.41;;;8.62;100.00
73817;BME280;62146;53.232;-1.304;2023-05-29T02:33:21;101775.59;;;8.60;100.00
73817;BME280;62146;53.232;-1.304;2023-05-29T02:35:48;101776.00;;;8.57;100.00
73817;BME280;62146;53.232;-1.304;2023-05-29T02:38:14;101778.22;;;8.54;100.00
73817;BME280;62146;53.232;-1.304;2023-05-29T02:40:41;101783.69;;;8.52;100.00
73817;BME280;62146;53.232;-1.304;2023-05-29T02:43:09;101780.22;;;8.52;100.00
73817;BME280;62146;53.232;-1.304;2023-05-29T02:45:35;101787.91;;;8.47;100.00
73817;BME280;62146;53.232;-1.304;2023-05-29T02:48:02;101779.13;;;8.40;100.00
73817;BME280;62146;53.232;-1.304;2023-05-29T02:50:30;101777.66;;;8.37;100.00
73817;BME280;62146;53.232;-1.304;2023-05-29T02:52:56;101788.22;;;8.37;100.00
73817;BME280;62146;53.232;-1.304;2023-05-29T02:55:23;101785.19;;;8.34;100.00
73817;BME280;62146;53.232;-1.304;2023-05-29T02:57:50;101774.78;;;8.32;100.00
73817;BME280;62146;53.232;-1.304;2023-05-29T03:00:19;101786.53;;;8.30;100.00
73817;BME280;62146;53.232;-1.304;2023-05-29T03:02:47;101787.56;;;8.29;100.00
73817;BME280;62146;53.232;-1.304;2023-05-29T03:05:13;101787.13;;;8.26;100.00
73817;BME280;62146;53.232;-1.304;2023-05-29T03:07:40;101787.38;;;8.30;100.00
73817;BME280;62146;53.232;-1.304;2023-05-29T03:10:07;101783.66;;;8.25;100.00
73817;BME280;62146;53.232;-1.304;2023-05-29T03:12:33;101776.56;;;8.26;100.00
73817;BME280;62146;53.232;-1.304;2023-05-29T03:15:01;101779.59;;;8.23;100.00
73817;BME280;62146;53.232;-1.304;2023-05-29T03:17:28;101777.34;;;8.20;100.00
73817;BME280;62146;53.232;-1.304;2023-05-29T03:19:55;101781.38;;;8.16;100.00
73817;BME280;62146;53.232;-1.304;2023-05-29T03:22:21;101777.41;;;8.05;100.00
73817;BME280;62146;53.232;-1.304;2023-05-29T03:24:48;101785.31;;;8.05;100.00
73817;BME280;62146;53.232;-1.304;2023-05-29T03:27:15;101786.13;;;8.06;100.00
73817;BME280;62146;53.232;-1.304;2023-05-29T03:29:41;101780.38;;;8.02;100.00
73817;BME280;62146;53.232;-1.304;2023-05-29T03:32:08;101790.25;;;7.94;100.00
73817;BME280;62146;53.232;-1.304;2023-05-29T03:34:34;101778.06;;;7.93;100.00
73817;BME280;62146;53.232;-1.304;2023-05-29T03:37:01;101785.91;;;7.87;100.00
73817;BME280;62146;53.232;-1.304;2023-05-29T03:39:28;101780.19;;;7.83;100.00
73817;BME280;62146;53.232;-1.304;2023-05-29T03:41:55;101783.78;;;7.76;100.00
73817;BME280;62146;53.232;-1.304;2023-05-29T03:44:21;101791.91;;;7.74;100.00
73817;BME280;62146;53.232;-1.304;2023-05-29T03:46:49;101793.06;;;7.72;100.00
73817;BME280;62146;53.232;-1.304;2023-05-29T03:49:16;101791.81;;;7.68;100.00
73817;BME280;62146;53.232;-1.304;2023-05-29T03:51:43;101797.47;;;7.65;100.00
73817;BME280;62146;53.232;-1.304;2023-05-29T03:54:09;101794.56;;;7.60;100.00
73817;BME280;62146;53.232;-1.304;2023-05-29T03:56:36;101799.84;;;7.60;100.00
73817;BME280;62146;53.232;-1.304;2023-05-29T03:59:03;101796.50;;;7.52;100.00
73817;BME280;62146;53.232;-1.304;2023-05-29T04:01:29;101795.25;;;7.48;100.00
73817;BME280;62146;53.232;-1.304;2023-05-29T04:03:56;101798.69;;;7.48;100.00
73817;BME280;62146;53.232;-1.304;2023-05-29T04:06:23;101796.44;;;7.46;100.00
73817;BME280;62146;53.232;-1.304;2023-05-29T04:08:50;101795.81;;;7.44;100.00
73817;BME280;62146;53.232;-1.304;2023-05-29T04:11:16;101803.47;;;7.39;100.00
73817;BME280;62146;53.232;-1.304;2023-05-29T04:13:43;101800.84;;;7.39;100.00
73817;BME280;62146;53.232;-1.304;2023-05-29T04:16:10;101804.00;;;7.34;100.00
73817;BME280;62146;53.232;-1.304;2023-05-29T04:18:37;101801.66;;;7.39;100.00
73817;BME280;62146;53.232;-1.304;2023-05-29T04:21:03;101806.13;;;7.39;100.00
73817;BME280;62146;53.232;-1.304;2023-05-29T04:23:30;101811.81;;;7.42;100.00
73817;BME280;62146;53.232;-1.304;2023-05-29T04:25:57;101813.84;;;7.40;100.00
73817;BME280;62146;53.232;-1.304;2023-05-29T04:28:23;101815.00;;;7.38;100.00
73817;BME280;62146;53.232;-1.304;2023-05-29T04:30:50;101817.66;;;7.38;100.00
73817;BME280;62146;53.232;-1.304;2023-05-29T04:33:20;101820.94;;;7.40;100.00
73817;BME280;62146;53.232;-1.304;2023-05-29T04:35:47;101818.09;;;7.41;100.00
73817;BME280;62146;53.232;-1.304;2023-05-29T04:38:15;101825.19;;;7.41;100.00
73817;BME280;62146;53.232;-1.304;2023-05-29T04:40:42;101826.81;;;7.42;100.00
73817;BME280;62146;53.232;-1.304;2023-05-29T04:43:10;101821.56;;;7.42;100.00
73817;BME280;62146;53.232;-1.304;2023-05-29T04:45:37;101827.47;;;7.44;100.00
73817;BME280;62146;53.232;-1.304;2023-05-29T04:48:04;101817.75;;;7.44;100.00
73817;BME280;62146;53.232;-1.304;2023-05-29T04:50:30;101823.81;;;7.45;100.00
73817;BME280;62146;53.232;-1.304;2023-05-29T04:52:58;101824.84;;;7.44;100.00
73817;BME280;62146;53.232;-1.304;2023-05-29T04:55:24;101832.41;;;7.47;100.00
73817;BME280;62146;53.232;-1.304;2023-05-29T04:57:51;101837.03;;;7.45;100.00
73817;BME280;62146;53.232;-1.304;2023-05-29T05:00:18;101844.13;;;7.44;100.00
73817;BME280;62146;53.232;-1.304;2023-05-29T05:02:45;101841.69;;;7.43;100.00
73817;BME280;62146;53.232;-1.304;2023-05-29T05:05:13;101841.28;;;7.46;100.00
73817;BME280;62146;53.232;-1.304;2023-05-29T05:07:39;101845.59;;;7.47;100.00
73817;BME280;62146;53.232;-1.304;2023-05-29T05:10:07;101833.38;;;7.46;100.00
73817;BME280;62146;53.232;-1.304;2023-05-29T05:12:33;101837.66;;;7.47;100.00
73817;BME280;62146;53.232;-1.304;2023-05-29T05:15:00;101844.38;;;7.49;100.00
73817;BME280;62146;53.232;-1.304;2023-05-29T05:17:27;101850.13;;;7.52;100.00
73817;BME280;62146;53.232;-1.304;2023-05-29T05:19:53;101840.81;;;7.56;100.00
73817;BME280;62146;53.232;-1.304;2023-05-29T05:22:20;101843.28;;;7.58;100.00
73817;BME280;62146;53.232;-1.304;2023-05-29T05:24:47;101848.00;;;7.62;100.00
73817;BME280;62146;53.232;-1.304;2023-05-29T05:27:14;101838.53;;;7.68;100.00
73817;BME280;62146;53.232;-1.304;2023-05-29T05:29:40;101836.34;;;7.71;100.00
73817;BME280;62146;53.232;-1.304;2023-05-29T05:32:07;101828.66;;;7.76;100.00
73817;BME280;62146;53.232;-1.304;2023-05-29T05:34:34;101829.75;;;7.81;100.00
73817;BME280;62146;53.232;-1.304;2023-05-29T05:37:01;101834.28;;;7.87;100.00
73817;BME280;62146;53.232;-1.304;2023-05-29T05:39:29;101833.53;;;7.93;100.00
73817;BME280;62146;53.232;-1.304;2023-05-29T05:41:56;101843.34;;;7.99;100.00
73817;BME280;62146;53.232;-1.304;2023-05-29T05:44:22;101840.81;;;8.05;100.00
73817;BME280;62146;53.232;-1.304;2023-05-29T05:46:49;101836.56;;;8.11;100.00
73817;BME280;62146;53.232;-1.304;2023-05-29T05:49:15;101847.22;;;8.17;100.00
73817;BME280;62146;53.232;-1.304;2023-05-29T05:51:42;101848.91;;;8.25;100.00
73817;BME280;62146;53.232;-1.304;2023-05-29T05:54:09;101842.03;;;8.30;100.00
73817;BME280;62146;53.232;-1.304;2023-05-29T05:56:36;101842.09;;;8.36;100.00
73817;BME280;62146;53.232;-1.304;2023-05-29T05:59:03;101831.78;;;8.41;100.00
73817;BME280;62146;53.232;-1.304;2023-05-29T06:01:29;101832.03;;;8.46;100.00
73817;BME280;62146;53.232;-1.304;2023-05-29T06:03:56;101830.66;;;8.50;100.00
73817;BME280;62146;53.232;-1.304;2023-05-29T06:06:23;101835.34;;;8.55;100.00
73817;BME280;62146;53.232;-1.304;2023-05-29T06:08:49;101837.22;;;8.60;100.00
73817;BME280;62146;53.232;-1.304;2023-05-29T06:11:16;101837.47;;;8.65;100.00
73817;BME280;62146;53.232;-1.304;2023-05-29T06:13:43;101839.53;;;8.70;100.00
73817;BME280;62146;53.232;-1.304;2023-05-29T06:16:10;101837.94;;;8.75;100.00
73817;BME280;62146;53.232;-1.304;2023-05-29T06:18:37;101839.63;;;8.82;100.00
73817;BME280;62146;53.232;-1.304;2023-05-29T06:21:03;101841.69;;;8.87;100.00
73817;BME280;62146;53.232;-1.304;2023-05-29T06:23:31;101841.75;;;8.93;100.00
73817;BME280;62146;53.232;-1.304;2023-05-29T06:25:58;101844.63;;;8.98;100.00
73817;BME280;62146;53.232;-1.304;2023-05-29T06:28:24;101842.66;;;9.07;100.00
73817;BME280;62146;53.232;-1.304;2023-05-29T06:30:51;101843.31;;;9.15;100.00
73817;BME280;62146;53.232;-1.304;2023-05-29T06:33:19;101839.06;;;9.20;100.00
73817;BME280;62146;53.232;-1.304;2023-05-29T06:35:48;101835.44;;;9.28;100.00
73817;BME280;62146;53.232;-1.304;2023-05-29T06:38:16;101844.03;;;9.36;100.00
73817;BME280;62146;53.232;-1.304;2023-05-29T06:40:42;101860.75;;;9.43;100.00
73817;BME280;62146;53.232;-1.304;2023-05-29T06:43:09;101862.63;;;9.49;100.00
73817;BME280;62146;53.232;-1.304;2023-05-29T06:45:37;101868.75;;;9.56;100.00
73817;BME280;62146;53.232;-1.304;2023-05-29T06:48:04;101862.47;;;9.63;100.00
73817;BME280;62146;53.232;-1.304;2023-05-29T06:50:30;101868.22;;;9.73;100.00
73817;BME280;62146;53.232;-1.304;2023-05-29T06:52:57;101871.91;;;9.78;100.00
73817;BME280;62146;53.232;-1.304;2023-05-29T06:55:24;101868.28;;;9.86;100.00
73817;BME280;62146;53.232;-1.304;2023-05-29T06:57:50;101876.91;;;9.94;100.00
73817;BME280;62146;53.232;-1.304;2023-05-29T07:00:17;101871.44;;;10.02;100.00
73817;BME280;62146;53.232;-1.304;2023-05-29T07:02:44;101872.06;;;10.10;100.00
73817;BME280;62146;53.232;-1.304;2023-05-29T07:05:10;101868.41;;;10.17;100.00
73817;BME280;62146;53.232;-1.304;2023-05-29T07:07:37;101869.84;;;10.26;100.00
73817;BME280;62146;53.232;-1.304;2023-05-29T07:10:04;101871.25;;;10.35;100.00
73817;BME280;62146;53.232;-1.304;2023-05-29T07:12:32;101870.66;;;10.46;100.00
73817;BME280;62146;53.232;-1.304;2023-05-29T07:14:58;101871.91;;;10.56;100.00
73817;BME280;62146;53.232;-1.304;2023-05-29T07:17:25;101861.50;;;10.68;100.00
73817;BME280;62146;53.232;-1.304;2023-05-29T07:19:52;101869.44;;;10.80;100.00
73817;BME280;62146;53.232;-1.304;2023-05-29T07:22:20;101863.53;;;10.91;100.00
73817;BME280;62146;53.232;-1.304;2023-05-29T07:24:47;101864.34;;;11.04;100.00
73817;BME280;62146;53.232;-1.304;2023-05-29T07:27:13;101865.94;;;11.18;100.00
73817;BME280;62146;53.232;-1.304;2023-05-29T07:29:40;101863.03;;;11.32;100.00
73817;BME280;62146;53.232;-1.304;2023-05-29T07:32:06;101870.81;;;11.47;100.00
73817;BME280;62146;53.232;-1.304;2023-05-29T07:34:33;101866.25;;;11.60;100.00
73817;BME280;62146;53.232;-1.304;2023-05-29T07:37:03;101865.75;;;11.76;100.00
73817;BME280;62146;53.232;-1.304;2023-05-29T07:39:34;101871.63;;;11.90;100.00
73817;BME280;62146;53.232;-1.304;2023-05-29T07:42:02;101877.47;;;12.05;100.00
73817;BME280;62146;53.232;-1.304;2023-05-29T07:44:29;101868.84;;;12.16;100.00
73817;BME280;62146;53.232;-1.304;2023-05-29T07:46:56;101867.94;;;12.28;100.00
73817;BME280;62146;53.232;-1.304;2023-05-29T07:49:22;101867.03;;;12.40;100.00
73817;BME280;62146;53.232;-1.304;2023-05-29T07:51:49;101873.06;;;12.54;100.00
73817;BME280;62146;53.232;-1.304;2023-05-29T07:54:16;101882.00;;;12.65;100.00
73817;BME280;62146;53.232;-1.304;2023-05-29T07:56:47;101876.00;;;12.76;100.00
73817;BME280;62146;53.232;-1.304;2023-05-29T07:59:13;101880.25;;;12.84;100.00
73817;BME280;62146;53.232;-1.304;2023-05-29T08:01:40;101885.06;;;12.93;100.00
73817;BME280;62146;53.232;-1.304;2023-05-29T08:04:06;101888.47;;;13.00;100.00
73817;BME280;62146;53.232;-1.304;2023-05-29T08:06:33;101891.91;;;13.07;100.00
73817;BME280;62146;53.232;-1.304;2023-05-29T08:09:00;101893.09;;;13.11;100.00
73817;BME280;62146;53.232;-1.304;2023-05-29T08:11:28;101893.47;;;13.14;100.00
73817;BME280;62146;53.232;-1.304;2023-05-29T08:13:54;101906.72;;;13.20;100.00
73817;BME280;62146;53.232;-1.304;2023-05-29T08:16:21;101902.56;;;13.24;100.00
73817;BME280;62146;53.232;-1.304;2023-05-29T08:18:48;101903.75;;;13.28;100.00
73817;BME280;62146;53.232;-1.304;2023-05-29T08:21:15;101918.88;;;13.34;100.00
73817;BME280;62146;53.232;-1.304;2023-05-29T08:23:42;101913.94;;;13.38;100.00
73817;BME280;62146;53.232;-1.304;2023-05-29T08:26:08;101920.44;;;13.41;100.00
73817;BME280;62146;53.232;-1.304;2023-05-29T08:28:35;101918.75;;;13.47;100.00
73817;BME280;62146;53.232;-1.304;2023-05-29T08:31:02;101928.72;;;13.51;100.00
73817;BME280;62146;53.232;-1.304;2023-05-29T08:33:28;101917.63;;;13.54;100.00
73817;BME280;62146;53.232;-1.304;2023-05-29T08:35:58;101927.44;;;13.60;100.00
73817;BME280;62146;53.232;-1.304;2023-05-29T08:38:31;101926.75;;;13.65;100.00
73817;BME280;62146;53.232;-1.304;2023-05-29T08:40:57;101922.59;;;13.68;100.00
73817;BME280;62146;53.232;-1.304;2023-05-29T08:43:25;101920.88;;;13.74;100.00
73817;BME280;62146;53.232;-1.304;2023-05-29T08:46:00;101918.75;;;13.82;100.00
73817;BME280;62146;53.232;-1.304;2023-05-29T08:48:27;101923.19;;;13.88;100.00
73817;BME280;62146;53.232;-1.304;2023-05-29T08:50:56;101925.56;;;13.96;100.00
73817;BME280;62146;53.232;-1.304;2023-05-29T08:53:24;101919.13;;;14.03;100.00
73817;BME280;62146;53.232;-1.304;2023-05-29T08:55:52;101919.84;;;14.10;100.00
73817;BME280;62146;53.232;-1.304;2023-05-29T08:58:19;101923.84;;;14.19;100.00
73817;BME280;62146;53.232;-1.304;2023-05-29T09:00:50;101929.66;;;14.27;100.00
73817;BME280;62146;53.232;-1.304;2023-05-29T09:03:18;101924.25;;;14.34;100.00
73817;BME280;62146;53.232;-1.304;2023-05-29T09:05:47;101927.03;;;14.39;100.00
73817;BME280;62146;53.232;-1.304;2023-05-29T09:08:15;101923.47;;;14.45;100.00
73817;BME280;62146;53.232;-1.304;2023-05-29T09:10:44;101927.91;;;14.50;100.00
73817;BME280;62146;53.232;-1.304;2023-05-29T09:13:12;101935.00;;;14.56;100.00
73817;BME280;62146;53.232;-1.304;2023-05-29T09:15:40;101929.56;;;14.63;100.00
73817;BME280;62146;53.232;-1.304;2023-05-29T09:18:10;101929.47;;;14.69;100.00
73817;BME280;62146;53.232;-1.304;2023-05-29T09:20:37;101930.97;;;14.76;100.00
73817;BME280;62146;53.232;-1.304;2023-05-29T09:23:06;101933.56;;;14.83;100.00
73817;BME280;62146;53.232;-1.304;2023-05-29T09:25:36;101919.06;;;14.90;100.00
73817;BME280;62146;53.232;-1.304;2023-05-29T09:28:07;101925.13;;;14.97;100.00
73817;BME280;62146;53.232;-1.304;2023-05-29T09:30:37;101920.28;;;15.05;100.00
73817;BME280;62146;53.232;-1.304;2023-05-29T09:33:05;101923.16;;;15.15;100.00
73817;BME280;62146;53.232;-1.304;2023-05-29T09:35:53;101919.69;;;15.26;100.00
73817;BME280;62146;53.232;-1.304;2023-05-29T09:38:20;101920.97;;;15.35;100.00
73817;BME280;62146;53.232;-1.304;2023-05-29T09:40:50;101925.16;;;15.42;100.00
73817;BME280;62146;53.232;-1.304;2023-05-29T09:43:18;101925.28;;;15.47;100.00
73817;BME280;62146;53.232;-1.304;2023-05-29T09:45:47;101918.75;;;15.54;100.00
73817;BME280;62146;53.232;-1.304;2023-05-29T09:48:21;101920.72;;;15.59;100.00
73817;BME280;62146;53.232;-1.304;2023-05-29T09:50:48;101918.50;;;15.67;100.00
73817;BME280;62146;53.232;-1.304;2023-05-29T09:53:20;101919.19;;;15.74;100.00
73817;BME280;62146;53.232;-1.304;2023-05-29T09:55:49;101915.69;;;15.85;100.00
73817;BME280;62146;53.232;-1.304;2023-05-29T09:58:22;101917.25;;;15.97;100.00
73817;BME280;62146;53.232;-1.304;2023-05-29T10:00:50;101914.31;;;16.10;100.00
73817;BME280;62146;53.232;-1.304;2023-05-29T10:03:18;101917.56;;;16.23;100.00
73817;BME280;62146;53.232;-1.304;2023-05-29T10:05:53;101912.97;;;16.35;100.00
73817;BME280;62146;53.232;-1.304;2023-05-29T10:08:21;101914.19;;;16.44;100.00
73817;BME280;62146;53.232;-1.304;2023-05-29T10:10:52;101917.06;;;16.54;100.00
73817;BME280;62146;53.232;-1.304;2023-05-29T10:13:22;101903.00;;;16.63;100.00
73817;BME280;62146;53.232;-1.304;2023-05-29T10:15:51;101898.06;;;16.71;100.00
73817;BME280;62146;53.232;-1.304;2023-05-29T10:18:24;101898.00;;;16.83;100.00
73817;BME280;62146;53.232;-1.304;2023-05-29T10:20:54;101893.69;;;16.98;100.00
73817;BME280;62146;53.232;-1.304;2023-05-29T10:23:25;101891.38;;;17.17;100.00
73817;BME280;62146;53.232;-1.304;2023-05-29T10:25:54;101893.22;;;17.33;100.00
73817;BME280;62146;53.232;-1.304;2023-05-29T10:28:23;101882.91;;;17.46;100.00
73817;BME280;62146;53.232;-1.304;2023-05-29T10:30:55;101896.22;;;17.58;100.00
73817;BME280;62146;53.232;-1.304;2023-05-29T10:34:09;101900.41;;;17.70;100.00
73817;BME280;62146;53.232;-1.304;2023-05-29T10:36:18;101894.59;;;17.78;100.00
73817;BME280;62146;53.232;-1.304;2023-05-29T10:38:48;101892.84;;;17.88;100.00
73817;BME280;62146;53.232;-1.304;2023-05-29T10:43:56;101891.56;;;18.12;100.00
73817;BME280;62146;53.232;-1.304;2023-05-29T10:49:20;101899.22;;;18.50;100.00
73817;BME280;62146;53.232;-1.304;2023-05-29T10:51:48;101889.97;;;18.68;100.00
73817;BME280;62146;53.232;-1.304;2023-05-29T10:54:15;101897.69;;;18.85;100.00
73817;BME280;62146;53.232;-1.304;2023-05-29T10:56:44;101884.66;;;19.04;100.00
73817;BME280;62146;53.232;-1.304;2023-05-29T10:59:18;101881.25;;;19.18;100.00
73817;BME280;62146;53.232;-1.304;2023-05-29T11:01:44;101878.09;;;19.31;100.00
73817;BME280;62146;53.232;-1.304;2023-05-29T11:06:42;101886.31;;;19.50;100.00
73817;BME280;62146;53.232;-1.304;2023-05-29T11:09:34;101890.94;;;19.59;100.00
73817;BME280;62146;53.232;-1.304;2023-05-29T11:14:47;101877.88;;;19.78;100.00
73817;BME280;62146;53.232;-1.304;2023-05-29T11:20:09;101880.91;;;20.06;100.00
73817;BME280;62146;53.232;-1.304;2023-05-29T11:23:05;101877.47;;;20.20;100.00
73817;BME280;62146;53.232;-1.304;2023-05-29T11:25:36;101887.47;;;20.34;100.00
73817;BME280;62146;53.232;-1.304;2023-05-29T11:28:04;101887.22;;;20.50;100.00
73817;BME280;62146;53.232;-1.304;2023-05-29T11:30:46;101877.56;;;20.69;100.00
73817;BME280;62146;53.232;-1.304;2023-05-29T11:33:33;101885.38;;;20.90;100.00
73817;BME280;62146;53.232;-1.304;2023-05-29T11:36:02;101877.56;;;21.03;100.00
73817;BME280;62146;53.232;-1.304;2023-05-29T11:38:30;101878.06;;;21.15;100.00
73817;BME280;62146;53.232;-1.304;2023-05-29T11:40:57;101883.72;;;21.23;100.00
73817;BME280;62146;53.232;-1.304;2023-05-29T11:43:26;101881.84;;;21.34;100.00
73817;BME280;62146;53.232;-1.304;2023-05-29T11:45:53;101881.28;;;21.42;100.00
73817;BME280;62146;53.232;-1.304;2023-05-29T11:48:20;101883.44;;;21.49;100.00
73817;BME280;62146;53.232;-1.304;2023-05-29T11:50:48;101879.66;;;21.55;100.00
73817;BME280;62146;53.232;-1.304;2023-05-29T11:53:14;101879.88;;;21.64;100.00
73817;BME280;62146;53.232;-1.304;2023-05-29T11:55:41;101876.31;;;21.73;100.00
73817;BME280;62146;53.232;-1.304;2023-05-29T11:58:08;101873.59;;;21.83;100.00
73817;BME280;62146;53.232;-1.304;2023-05-29T12:00:36;101870.81;;;21.93;100.00
73817;BME280;62146;53.232;-1.304;2023-05-29T12:03:04;101868.06;;;22.07;100.00
73817;BME280;62146;53.232;-1.304;2023-05-29T12:05:32;101870.44;;;22.19;100.00
73817;BME280;62146;53.232;-1.304;2023-05-29T12:07:59;101865.25;;;22.32;100.00
73817;BME280;62146;53.232;-1.304;2023-05-29T12:10:30;101863.25;;;22.47;100.00
73817;BME280;62146;53.232;-1.304;2023-05-29T12:13:00;101862.59;;;22.60;100.00
73817;BME280;62146;53.232;-1.304;2023-05-29T12:15:29;101859.75;;;22.75;100.00
73817;BME280;62146;53.232;-1.304;2023-05-29T12:17:56;101858.88;;;22.89;100.00
73817;BME280;62146;53.232;-1.304;2023-05-29T12:20:24;101858.69;;;23.04;100.00
73817;BME280;62146;53.232;-1.304;2023-05-29T12:22:59;101843.94;;;23.19;100.00
73817;BME280;62146;53.232;-1.304;2023-05-29T12:25:28;101851.31;;;23.37;100.00
73817;BME280;62146;53.232;-1.304;2023-05-29T12:27:55;101853.88;;;23.52;100.00
73817;BME280;62146;53.232;-1.304;2023-05-29T12:30:23;101855.09;;;23.64;100.00
73817;BME280;62146;53.232;-1.304;2023-05-29T12:32:58;101848.19;;;23.76;100.00
73817;BME280;62146;53.232;-1.304;2023-05-29T12:35:28;101850.16;;;23.89;100.00
73817;BME280;62146;53.232;-1.304;2023-05-29T12:38:01;101860.59;;;24.00;100.00
73817;BME280;62146;53.232;-1.304;2023-05-29T12:40:29;101849.59;;;24.10;100.00
73817;BME280;62146;53.232;-1.304;2023-05-29T12:42:58;101851.88;;;24.21;100.00
73817;BME280;62146;53.232;-1.304;2023-05-29T12:45:29;101851.75;;;24.31;100.00
73817;BME280;62146;53.232;-1.304;2023-05-29T12:48:01;101844.50;;;24.45;100.00
73817;BME280;62146;53.232;-1.304;2023-05-29T12:50:30;101852.19;;;24.56;100.00
73817;BME280;62146;53.232;-1.304;2023-05-29T12:53:06;101843.06;;;24.66;100.00
73817;BME280;62146;53.232;-1.304;2023-05-29T12:55:35;101844.50;;;24.76;100.00
73817;BME280;62146;53.232;-1.304;2023-05-29T12:58:10;101845.97;;;24.87;100.00
73817;BME280;62146;53.232;-1.304;2023-05-29T13:00:39;101836.25;;;25.00;100.00